Skip Navigation LinksHome page > Weather > Current weather Skip Navigation Links

Current Weather

Palm Springs International, Palm Springs, Calif.

For information only: do not use for flight planning or navigation.
Latest weather
Observation time Monday, November 29, 2021 12:53 PM PST
Local time Monday, November 29, 2021 1:08 PM PST
Flight conditions Visual Meteorological Conditions
Winds
Wind speed calm
Visibility 10 mi.
Sky condition
Ceiling unlimited
Sky clear
Temperature 85°F
Dewpoint 20°F
Altimeter 30.03 in.Hg
Pressure change last 3 hours0.10 in.Hg
Pressure falling more quickly
Derived measurements
Relative humidity 9%
Heat index 85°F
Density altitude 2071 ft.
Sea-level pressure 30.02 in.Hg
Remarks
Automated weather observing station with precipitation discriminator.
METAR KPSP 292053Z 00000KT 10SM CLR 29/M07 A3003 RMK AO2 SLP166 T02941067 58034

Settings

Location code

InnerDrive.Weather 4.0.6770.0 Release CLR 4.0.30319.42000
Copyright ©2018 Inner Drive Technology. All rights reserved. Portions Copyright ©1986-2018 David Braverman.

Find weather

Site navigation


Skip Navigation Links

Place info

Page info

PayPal - The safer, easier way to pay online!

Return home.

Copyright ©2021 Inner Drive Technology. Purveyors of fine, hand-crafted computer software. Page printed 2021-11-29T21:08:36 UTC.